^^
Station Historical Data
Daily Summary for April 9, 2017 Units:  English    Metric   Both
« Previous Day
Next Day »
Daily Weekly Monthly Yearly Custom
  High: Low: Average:
Temperature: 66.7 °F 37.9 °F 51.1 °F
Dew Point: 38.8 °F 23.9 °F 29.5 °F
Humidity: 70% 27% 45%
Wind Speed: 8.0mph 0.0mph 1.7mph
Wind Gust: 15.0mph - -
Wind- - SW
Pressure: 30.19 in 30.04 in -
Precipitation: 0.00 in    
Historical Graphs
 
 
Tabular Data for April 9, 2017
Time Temperature Dew Point Pressure Wind Wind Speed Wind Gust Humidity Rainfall Rate (Hourly) Conditions
00:00 44.3 °F 24.8 °F 30.04 in NNE 1.0 mph 3.0 mph 46% 0.00 in CLR
00:15 43.9 °F 24.9 °F 30.04 in Calm   3.0 mph 47% 0.00 in CLR
00:30 43.2 °F 24.8 °F 30.05 in Calm   1.0 mph 48% 0.00 in CLR
00:45 42.5 °F 25.2 °F 30.05 in Calm   1.0 mph 50% 0.00 in CLR
01:00 41.4 °F 25.1 °F 30.05 in Calm   1.0 mph 52% 0.00 in CLR
02:15 40.0 °F 25.6 °F 30.07 in Calm   1.0 mph 56% 0.00 in CLR
02:45 40.7 °F 24.9 °F 30.07 in Calm     53% 0.00 in CLR
03:00 40.6 °F 24.8 °F 30.07 in Calm     53% 0.00 in CLR
03:15 39.9 °F 24.6 °F 30.07 in Calm   1.0 mph 54% 0.00 in CLR
03:30 39.7 °F 24.8 °F 30.07 in Calm   1.0 mph 55% 0.00 in CLR
03:45 38.0 °F 25.7 °F 30.08 in Calm   1.0 mph 61% 0.00 in CLR
04:00 37.9 °F 24.8 °F 30.08 in Calm     59% 0.00 in CLR
04:15 38.5 °F 24.6 °F 30.09 in Calm   1.0 mph 57% 0.00 in CLR
04:30 38.6 °F 24.3 °F 30.09 in Calm   1.0 mph 56% 0.00 in CLR
04:45 38.8 °F 24.4 °F 30.09 in Calm   1.0 mph 56% 0.00 in CLR
05:00 38.5 °F 24.6 °F 30.09 in Calm   1.0 mph 57% 0.00 in CLR
05:15 39.0 °F 24.6 °F 30.10 in Calm     56% 0.00 in CLR
05:30 39.0 °F 24.6 °F 30.10 in Calm     56% 0.00 in CLR
05:45 38.9 °F 24.1 °F 30.11 in Calm     55% 0.00 in CLR
06:15 39.5 °F 24.6 °F 30.12 in Calm   1.0 mph 55% 0.00 in CLR
06:30 39.7 °F 23.9 °F 30.13 in Calm     53% 0.00 in CLR
06:45 39.4 °F 24.1 °F 30.14 in Calm     54% 0.00 in CLR
07:00 39.7 °F 24.4 °F 30.15 in Calm     54% 0.00 in CLR
07:15 39.7 °F 24.4 °F 30.15 in Calm   1.0 mph 54% 0.00 in CLR
07:30 40.0 °F 24.7 °F 30.16 in South 2.0 mph 4.0 mph 54% 0.00 in CLR
07:45 41.2 °F 25.3 °F 30.16 in South 1.0 mph 5.0 mph 53% 0.00 in CLR
08:00 42.2 °F 25.8 °F 30.17 in SSW 1.0 mph 4.0 mph 52% 0.00 in CLR
08:15 43.2 °F 26.3 °F 30.17 in SSW 1.0 mph 5.0 mph 51% 0.00 in CLR
08:30 44.7 °F 26.7 °F 30.17 in SW 1.0 mph 6.0 mph 49% 0.00 in CLR
08:45 45.9 °F 26.8 °F 30.17 in Calm   6.0 mph 47% 0.00 in CLR
09:00 47.4 °F 25.4 °F 30.18 in SW 3.0 mph 6.0 mph 42% 0.00 in CLR
09:15 48.1 °F 25.5 °F 30.18 in Calm   7.0 mph 41% 0.00 in CLR
09:30 49.1 °F 26.4 °F 30.18 in WNW 2.0 mph 5.0 mph 41% 0.00 in CLR
09:45 49.5 °F 26.7 °F 30.18 in West 2.0 mph 5.0 mph 41% 0.00 in CLR
10:00 51.2 °F 27.1 °F 30.18 in WSW 1.0 mph 4.0 mph 39% 0.00 in CLR
10:15 52.1 °F 28.5 °F 30.18 in Calm   5.0 mph 40% 0.00 in CLR
10:30 53.0 °F 27.4 °F 30.18 in West 1.0 mph 3.0 mph 37% 0.00 in CLR
10:45 53.3 °F 27.7 °F 30.19 in West 2.0 mph 5.0 mph 37% 0.00 in CLR
11:00 54.4 °F 28.0 °F 30.19 in West 1.0 mph 5.0 mph 36% 0.00 in CLR
11:30 56.7 °F 28.6 °F 30.18 in WNW 1.0 mph 6.0 mph 34% 0.00 in CLR
11:45 58.0 °F 28.3 °F 30.18 in WSW 2.0 mph 5.0 mph 32% 0.00 in CLR
12:00 58.6 °F 28.8 °F 30.18 in SW 1.0 mph 7.0 mph 32% 0.00 in CLR
12:15 58.9 °F 29.1 °F 30.17 in South 1.0 mph 7.0 mph 32% 0.00 in CLR
12:30 60.9 °F 29.2 °F 30.17 in SSW 5.0 mph 8.0 mph 30% 0.00 in CLR
12:45 60.0 °F 29.2 °F 30.17 in WSW 3.0 mph 10.0 mph 31% 0.00 in CLR
13:00 60.6 °F 31.3 °F 30.17 in SSW 3.0 mph 12.0 mph 33% 0.00 in CLR
13:15 60.9 °F 30.8 °F 30.17 in SW 2.0 mph 12.0 mph 32% 0.00 in CLR
13:30 61.5 °F 30.5 °F 30.16 in SW 6.0 mph 10.0 mph 31% 0.00 in CLR
13:45 62.0 °F 31.0 °F 30.16 in SW 3.0 mph 12.0 mph 31% 0.00 in CLR
14:00 62.4 °F 31.3 °F 30.16 in South 3.0 mph 12.0 mph 31% 0.00 in CLR
14:15 63.2 °F 31.2 °F 30.15 in SW 5.0 mph 10.0 mph 30% 0.00 in CLR
14:30 64.1 °F 30.3 °F 30.14 in SW 6.0 mph 12.0 mph 28% 0.00 in CLR
14:45 63.5 °F 30.6 °F 30.14 in WSW 5.0 mph 13.0 mph 29% 0.00 in CLR
15:00 63.7 °F 31.7 °F 30.14 in SW 3.0 mph 12.0 mph 30% 0.00 in CLR
15:15 65.0 °F 31.1 °F 30.14 in SSW 6.0 mph 13.0 mph 28% 0.00 in CLR
15:30 65.6 °F 31.6 °F 30.13 in South 6.0 mph 14.0 mph 28% 0.00 in CLR
15:45 65.7 °F 30.8 °F 30.13 in South 6.0 mph 14.0 mph 27% 0.00 in CLR
16:00 65.9 °F 31.8 °F 30.12 in SW 6.0 mph 13.0 mph 28% 0.00 in CLR
16:15 66.7 °F 31.6 °F 30.12 in SSW 6.0 mph 12.0 mph 27% 0.00 in CLR
16:30 66.3 °F 31.3 °F 30.12 in SW 6.0 mph 15.0 mph 27% 0.00 in CLR
16:45 66.2 °F 33.0 °F 30.12 in SSW 8.0 mph 15.0 mph 29% 0.00 in CLR
17:00 64.5 °F 32.4 °F 30.12 in SSW 7.0 mph 14.0 mph 30% 0.00 in CLR
17:15 64.0 °F 32.7 °F 30.12 in SSW 3.0 mph 12.0 mph 31% 0.00 in CLR
17:30 63.7 °F 32.5 °F 30.12 in South 3.0 mph 12.0 mph 31% 0.00 in CLR
17:45 62.7 °F 31.6 °F 30.12 in SW 3.0 mph 13.0 mph 31% 0.00 in CLR
18:00 61.4 °F 31.2 °F 30.12 in SSW 5.0 mph 12.0 mph 32% 0.00 in CLR
18:15 60.6 °F 31.3 °F 30.12 in South 5.0 mph 10.0 mph 33% 0.00 in CLR
18:30 59.0 °F 31.4 °F 30.12 in SSE 3.0 mph 8.0 mph 35% 0.00 in CLR
18:45 57.8 °F 31.0 °F 30.12 in South 3.0 mph 10.0 mph 36% 0.00 in CLR
19:00 56.3 °F 31.6 °F 30.12 in Calm   6.0 mph 39% 0.00 in CLR
19:15 55.0 °F 31.7 °F 30.13 in SW 2.0 mph 8.0 mph 41% 0.00 in CLR
19:30 54.0 °F 32.0 °F 30.13 in Calm   7.0 mph 43% 0.00 in CLR
19:45 53.2 °F 32.4 °F 30.13 in SSE 1.0 mph 5.0 mph 45% 0.00 in CLR
20:15 51.7 °F 33.6 °F 30.15 in Calm   4.0 mph 50% 0.00 in CLR
20:30 50.9 °F 34.4 °F 30.15 in NW 1.0 mph 3.0 mph 53% 0.00 in CLR
20:45 50.4 °F 34.8 °F 30.16 in North 1.0 mph 2.0 mph 55% 0.00 in CLR
21:00 50.1 °F 35.4 °F 30.16 in Calm   2.0 mph 57% 0.00 in CLR
21:15 49.4 °F 35.7 °F 30.17 in Calm   3.0 mph 59% 0.00 in CLR
21:30 48.8 °F 36.4 °F 30.17 in Calm   1.0 mph 62% 0.00 in CLR
21:45 48.3 °F 35.9 °F 30.18 in Calm   1.0 mph 62% 0.00 in CLR
22:00 48.1 °F 36.5 °F 30.18 in Calm   1.0 mph 64% 0.00 in CLR
22:15 47.8 °F 36.9 °F 30.18 in Calm   1.0 mph 66% 0.00 in CLR
22:30 47.3 °F 36.9 °F 30.18 in Calm   1.0 mph 67% 0.00 in CLR
22:45 47.4 °F 37.4 °F 30.18 in Calm   2.0 mph 68% 0.00 in CLR
23:00 47.7 °F 37.7 °F 30.18 in Calm   2.0 mph 68% 0.00 in CLR
23:15 47.6 °F 38.3 °F 30.18 in Calm   1.0 mph 70% 0.00 in CLR
23:30 48.1 °F 38.8 °F 30.18 in Calm   2.0 mph 70% 0.00 in CLR
23:45 48.8 °F 38.7 °F 30.18 in South 1.0 mph 4.0 mph 68% 0.00 in CLR
TarryTown NY Weather
Compliments of Weather Underground - 1.5 mb